Time;durP1;ratioP1;P1;durP2;ratioP2;P2;SDS_P1;SDS_P2;PMS_P1;PMS_P2;Temp;Humidity;BMP_temperature;BMP_pressure;BME280_temperature;BME280_humidity;BME280_pressure;Samples;Min_cycle;Max_cycle;Signal;HPM_P1;HPM_P2
2023/06/14 15:07:52;;;;;;;7.40;2.28;;;50.80;99.90;;;;;;4977530;28;20050;-70
2023/06/14 15:10:18;;;;;;;6.70;2.35;;;51.40;99.90;;;;;;4908030;29;20048;-64
2023/06/14 15:12:44;;;;;;;8.35;2.17;;;51.50;99.90;;;;;;4936012;29;20066;-64
2023/06/14 15:15:10;;;;;;;6.07;2.20;;;51.20;99.90;;;;;;4936272;29;20126;-64
2023/06/14 15:17:36;;;;;;;7.85;2.10;;;51.60;99.90;;;;;;4936521;29;20036;-64
2023/06/14 15:20:02;;;;;;;8.88;2.10;;;51.80;99.90;;;;;;4934520;29;20522;-64
2023/06/14 15:22:28;;;;;;;6.68;2.05;;;52.10;99.90;;;;;;4935360;29;20058;-64
2023/06/14 15:24:54;;;;;;;4.93;2.10;;;52.20;99.90;;;;;;4935346;29;20494;-64
2023/06/14 15:27:19;;;;;;;8.95;2.63;;;51.90;99.90;;;;;;4934885;29;20036;-63
2023/06/14 15:29:47;;;;;;;7.95;3.38;;;52.30;99.90;;;;;;4935384;29;20048;-63
2023/06/14 15:32:12;;;;;;;6.60;2.50;;;51.90;99.90;;;;;;4935421;29;20369;-64
2023/06/14 15:34:39;;;;;;;8.23;2.38;;;52.60;99.90;;;;;;4931719;29;20047;-64
2023/06/14 15:37:06;;;;;;;6.03;2.17;;;52.00;99.90;;;;;;4923361;29;20520;-64
2023/06/14 15:39:32;;;;;;;9.23;2.10;;;51.90;99.90;;;;;;4935418;29;20126;-64
2023/06/14 15:41:58;;;;;;;5.68;2.10;;;52.20;99.90;;;;;;4935694;29;20122;-64
2023/06/14 15:44:25;;;;;;;6.00;2.40;;;51.70;99.90;;;;;;4935131;29;20044;-64
2023/06/14 15:46:51;;;;;;;5.68;2.10;;;52.10;99.90;;;;;;4940107;29;20405;-63
2023/06/14 15:49:17;;;;;;;5.85;2.20;;;51.60;99.90;;;;;;4935228;29;20035;-64
2023/06/14 15:51:43;;;;;;;6.43;2.25;;;51.70;99.90;;;;;;4935226;29;20036;-64
2023/06/14 15:54:09;;;;;;;5.25;2.35;;;51.50;99.90;;;;;;4924269;29;20519;-64
2023/06/14 15:56:35;;;;;;;9.55;2.35;;;51.50;99.90;;;;;;4935338;29;20397;-64
2023/06/14 15:59:00;;;;;;;7.82;2.13;;;51.50;99.90;;;;;;4935058;29;20544;-64
2023/06/14 16:01:27;;;;;;;5.68;2.03;;;51.30;99.90;;;;;;4935003;29;20421;-65
2023/06/14 16:03:53;;;;;;;7.60;2.40;;;50.90;99.90;;;;;;4934366;29;20075;-64
2023/06/14 16:06:18;;;;;;;6.68;3.45;;;50.40;99.90;;;;;;4935120;29;20188;-63
2023/06/14 16:08:45;;;;;;;4.65;2.20;;;50.30;99.90;;;;;;4934769;29;20118;-64
2023/06/14 16:11:11;;;;;;;8.70;2.22;;;49.90;99.90;;;;;;4934818;29;20043;-63
2023/06/14 16:13:37;;;;;;;8.63;2.78;;;49.90;99.90;;;;;;4923956;29;20566;-64
2023/06/14 16:16:02;;;;;;;4.75;1.80;;;49.80;99.90;;;;;;4931618;29;20039;-65
2023/06/14 16:18:28;;;;;;;5.10;2.20;;;49.50;99.90;;;;;;4923850;29;20036;-64
2023/06/14 16:20:55;;;;;;;6.60;2.15;;;48.40;99.90;;;;;;4934081;29;20047;-65
2023/06/14 16:23:21;;;;;;;7.63;2.80;;;48.30;99.90;;;;;;4922478;29;20183;-63
2023/06/14 16:25:47;;;;;;;6.15;2.50;;;47.70;99.90;;;;;;4934348;29;20051;-64
2023/06/14 16:28:13;;;;;;;7.75;2.45;;;47.50;99.90;;;;;;4934063;29;20043;-63
2023/06/14 16:30:39;;;;;;;6.32;2.30;;;47.40;99.90;;;;;;4933783;29;20135;-64
2023/06/14 16:33:05;;;;;;;4.65;2.08;;;47.10;99.90;;;;;;4920854;29;20107;-63
2023/06/14 16:35:31;;;;;;;5.70;2.05;;;46.80;99.90;;;;;;4932709;29;20107;-65
2023/06/14 16:37:58;;;;;;;4.80;2.00;;;46.90;99.90;;;;;;4933020;29;20039;-63
2023/06/14 16:40:23;;;;;;;6.50;2.10;;;46.60;99.90;;;;;;4921496;29;20043;-63
2023/06/14 16:42:49;;;;;;;4.50;2.00;;;46.50;99.90;;;;;;4916032;29;20039;-64
2023/06/14 16:45:16;;;;;;;8.43;3.72;;;45.80;99.90;;;;;;4915038;29;20490;-63
2023/06/14 16:47:42;;;;;;;6.93;2.67;;;45.40;99.90;;;;;;4932949;29;20540;-64
2023/06/14 16:50:08;;;;;;;6.18;2.80;;;45.10;99.90;;;;;;4933048;29;20059;-63
2023/06/14 16:52:34;;;;;;;7.63;3.42;;;45.10;99.90;;;;;;4933259;29;20569;-63
2023/06/14 16:55:00;;;;;;;6.68;2.47;;;45.20;99.90;;;;;;4930444;29;20036;-63
2023/06/14 16:57:26;;;;;;;6.35;2.25;;;44.80;99.90;;;;;;4924327;29;20038;-63
2023/06/14 16:59:52;;;;;;;7.68;2.97;;;44.60;99.90;;;;;;4931064;29;20131;-63
2023/06/14 17:02:18;;;;;;;8.05;4.75;;;44.20;99.90;;;;;;4933603;29;20114;-63
2023/06/14 17:04:44;;;;;;;8.68;3.50;;;44.10;99.90;;;;;;4932984;29;20412;-63
2023/06/14 17:07:10;;;;;;;7.82;3.10;;;43.50;99.90;;;;;;4921949;29;20123;-63
2023/06/14 17:09:36;;;;;;;7.28;3.10;;;43.10;99.90;;;;;;4933800;29;20119;-63
2023/06/14 17:12:02;;;;;;;5.28;2.47;;;41.90;99.90;;;;;;4937369;29;20449;-63
2023/06/14 17:14:29;;;;;;;6.05;2.20;;;40.10;1.00;;;;;;4909861;23;20364;-69
2023/06/14 17:16:55;;;;;;;5.45;2.22;;;;;;;;;;4925939;28;20077;-70
2023/06/14 17:19:22;;;;;;;5.40;2.33;;;;;;;;;;4925572;28;20473;-69
2023/06/14 17:21:51;;;;;;;4.50;2.08;;;;;;;;;;4911817;28;20681;-69
2023/06/14 17:24:19;;;;;;;7.85;2.20;;;;;;;;;;4905354;29;20051;-68
2023/06/14 17:26:45;;;;;;;4.85;2.10;;;;;;;;;;4905326;29;20437;-69
2023/06/14 17:29:11;;;;;;;6.00;2.22;;;;;;;;;;4890431;28;20495;-69
2023/06/14 17:31:38;;;;;;;6.10;2.63;;;;;;;;;;4905749;29;20196;-69
2023/06/14 17:34:05;;;;;;;5.78;2.53;;;;;;;;;;4904292;29;20091;-69
2023/06/14 17:36:34;;;;;;;7.80;2.35;;;;;;;;;;4904828;29;20047;-69
2023/06/14 17:39:02;;;;;;;6.50;2.40;;;;;;;;;;4906304;29;20047;-70
2023/06/14 17:41:30;;;;;;;5.50;2.10;;;;;;;;;;4906131;29;20878;-69
2023/06/14 17:43:56;;;;;;;6.28;2.35;;;;;;;;;;4906085;29;20704;-69
2023/06/14 17:46:23;;;;;;;6.57;2.20;;;;;;;;;;4876391;29;20059;-69
2023/06/14 17:48:50;;;;;;;7.20;2.50;;;;;;;;;;4908247;29;20051;-69
2023/06/14 17:51:17;;;;;;;6.80;2.50;;;;;;;;;;4908667;29;20359;-69
2023/06/14 17:53:46;;;;;;;8.45;2.63;;;;;;;;;;4905746;29;20601;-70
2023/06/14 17:56:12;;;;;;;6.53;2.40;;;;;;;;;;4902375;28;20524;-70
2023/06/14 17:58:39;;;;;;;6.00;2.55;;;;;;;;;;4904082;29;20532;-70
2023/06/14 18:01:06;;;;;;;6.85;2.72;;;;;;;;;;4904780;29;20799;-70
2023/06/14 18:03:32;;;;;;;8.63;3.13;;;;;;;;;;4901810;29;20628;-70
2023/06/14 18:06:00;;;;;;;10.23;3.10;;;;;;;;;;4904933;29;20422;-69
2023/06/14 18:08:26;;;;;;;6.90;2.70;;;29.70;1.00;;;;;;4945152;29;20126;-69
2023/06/14 18:10:52;;;;;;;6.38;2.53;;;29.70;1.00;;;;;;4948515;29;20043;-70
2023/06/14 18:13:18;;;;;;;7.18;2.30;;;;;;;;;;4891229;29;20043;-70
2023/06/14 18:15:45;;;;;;;9.10;2.72;;;;;;;;;;4910111;29;20076;-70
2023/06/14 18:18:11;;;;;;;5.25;2.28;;;;;;;;;;4913350;29;20123;-70
2023/06/14 18:20:37;;;;;;;7.00;2.55;;;;;;;;;;4914444;29;20369;-70
2023/06/14 18:23:53;;;;;;;8.23;2.60;;;28.70;1.00;;;;;;4947098;29;20078;-70
2023/06/14 18:26:26;;;;;;;4.97;2.13;;;28.70;1.00;;;;;;4903665;29;20043;-70
2023/06/14 18:28:53;;;;;;;8.83;2.70;;;;;;;;;;4894247;29;20360;-70
2023/06/14 18:31:20;;;;;;;6.50;2.63;;;;;;;;;;4910062;29;20472;-70
2023/06/14 18:34:21;;;;;;;7.10;2.50;;;27.70;1.00;;;;;;4919152;29;20318;-69
2023/06/14 18:36:57;;;;;;;6.63;2.60;;;;;;;;;;4899492;29;20050;-68
2023/06/14 18:39:27;;;;;;;9.05;3.17;;;;;;;;;;4911700;29;20059;-68
2023/06/14 18:42:26;;;;;;;8.43;2.58;;;;;;;;;;4942889;29;20161;-66
2023/06/14 18:48:02;;;;;;;10.05;3.05;;;;;;;;;;4869115;29;20393;-69
2023/06/14 18:50:35;;;;;;;9.30;2.40;;;;;;;;;;4896892;29;20093;-69
2023/06/14 18:53:26;;;;;;;7.60;2.63;;;;;;;;;;4917532;29;20329;-68
2023/06/14 18:55:57;;;;;;;6.95;2.15;;;;;;;;;;4934789;29;20417;-69
2023/06/14 18:58:31;;;;;;;6.03;2.70;;;;;;;;;;4901800;29;20362;-71
2023/06/14 19:01:03;;;;;;;5.20;2.35;;;;;;;;;;4899877;29;20534;-68
2023/06/14 19:03:43;;;;;;;7.28;2.20;;;;;;;;;;4923959;29;20047;-70
2023/06/14 19:11:28;;;;;;;7.65;2.58;;;;;;;;;;4977542;28;20055;-68
2023/06/14 19:13:58;;;;;;;7.60;2.90;;;;;;;;;;4944390;28;20628;-65
2023/06/14 19:16:28;;;;;;;5.38;2.45;;;;;;;;;;4901001;28;20051;-65
2023/06/14 19:18:54;;;;;;;7.25;2.45;;;;;;;;;;4973589;28;20484;-65
2023/06/14 19:21:23;;;;;;;6.63;2.72;;;;;;;;;;4960913;28;20469;-65
2023/06/14 19:23:53;;;;;;;6.55;2.72;;;;;;;;;;4955889;28;20066;-65
2023/06/14 19:26:29;;;;;;;7.20;2.88;;;;;;;;;;4966324;28;20071;-65
2023/06/14 19:28:58;;;;;;;4.95;2.25;;;;;;;;;;4970860;28;20039;-65
2023/06/14 19:31:32;;;;;;;7.75;2.70;;;;;;;;;;4966885;28;20085;-64
2023/06/14 19:34:01;;;;;;;;;;;;;;;;;;4972929;28;20043;-64
2023/06/14 19:36:27;;;;;;;5.55;2.45;;;;;;;;;;4973679;28;19949;-65
2023/06/14 19:38:53;;;;;;;7.40;2.70;;;;;;;;;;4976350;28;20053;-67
2023/06/14 19:41:20;;;;;;;7.00;2.50;;;;;;;;;;4969432;28;20049;-68
2023/06/14 19:43:47;;;;;;;7.65;2.55;;;;;;;;;;4975469;28;20501;-67
2023/06/14 19:46:16;;;;;;;8.73;2.80;;;;;;;;;;4976892;28;20054;-68
2023/06/14 19:48:42;;;;;;;7.93;2.85;;;;;;;;;;4959967;28;20038;-68
2023/06/14 19:51:26;;;;;;;7.78;2.88;;;;;;;;;;4977612;23;20065;-83
2023/06/14 19:54:13;;;;;;;6.13;2.50;;;;;;;;;;4900754;29;20051;-86
2023/06/14 19:57:26;;;;;;;6.88;2.83;;;;;;;;;;4884490;29;20423;-86
2023/06/14 20:00:05;;;;;;;;;;;;;;;;;;;;;
2023/06/14 20:19:38;;;;;;;11.27;3.38;;;;;;;;;;4968002;23;20053;-65
2023/06/14 20:22:06;;;;;;;9.80;3.05;;;;;;;;;;4936839;28;20133;-59
2023/06/14 20:24:32;;;;;;;6.85;2.78;;;;;;;;;;4952228;28;20070;-60
2023/06/14 20:26:58;;;;;;;6.78;2.83;;;;;;;;;;4969346;28;20034;-62
2023/06/14 20:29:26;;;;;;;10.27;3.97;;;;;;;;;;4967855;28;20039;-63
2023/06/14 20:31:52;;;;;;;9.20;3.35;;;;;;;;;;4972359;28;20176;-62
2023/06/14 20:34:18;;;;;;;8.65;2.65;;;;;;;;;;4966974;28;20087;-63
2023/06/14 20:36:46;;;;;;;5.80;2.90;;;;;;;;;;4971171;28;20566;-63
2023/06/14 20:39:12;;;;;;;6.47;2.92;;;;;;;;;;4967838;28;20043;-63
2023/06/14 20:41:40;;;;;;;6.90;3.05;;;;;;;;;;4955012;28;20042;-61
2023/06/14 20:44:08;;;;;;;6.65;3.40;;;;;;;;;;4948344;28;20073;-59
2023/06/14 20:46:37;;;;;;;8.02;3.75;;;;;;;;;;4947756;28;20046;-60
2023/06/14 20:49:03;;;;;;;9.00;4.45;;;;;;;;;;4952842;28;20058;-60
2023/06/14 20:51:29;;;;;;;12.43;2.92;;;;;;;;;;4969476;28;20456;-59
2023/06/14 20:53:55;;;;;;;10.50;3.05;;;;;;;;;;4971991;28;20050;-61
2023/06/14 20:56:22;;;;;;;7.13;3.10;;;;;;;;;;4968387;28;20037;-60
2023/06/14 20:58:48;;;;;;;8.32;3.25;;;;;;;;;;4954974;28;20447;-61
2023/06/14 21:01:14;;;;;;;9.35;3.70;;;;;;;;;;4964661;28;20049;-61
2023/06/14 21:03:40;;;;;;;6.90;3.28;;;;;;;;;;4971379;28;20057;-60
2023/06/14 21:06:06;;;;;;;8.45;3.15;;;;;;;;;;4967667;28;20046;-60
2023/06/14 21:08:32;;;;;;;6.68;2.72;;;;;;;;;;4971641;28;20138;-60
2023/06/14 21:10:58;;;;;;;6.63;2.80;;;;;;;;;;4970421;28;20469;-60
2023/06/14 21:13:25;;;;;;;7.72;3.35;;;;;;;;;;4969909;28;20047;-60
2023/06/14 21:15:51;;;;;;;8.90;3.05;;;;;;;;;;4971851;28;20035;-60
2023/06/14 21:18:19;;;;;;;8.45;3.88;;;;;;;;;;4964725;28;20108;-60
2023/06/14 21:20:46;;;;;;;7.13;2.90;;;;;;;;;;4968506;28;20048;-61
2023/06/14 21:23:13;;;;;;;7.25;3.83;;;;;;;;;;4951233;28;20050;-61
2023/06/14 21:25:39;;;;;;;7.88;2.97;;;;;;;;;;4954094;28;20046;-60
2023/06/14 21:28:05;;;;;;;6.82;2.92;;;;;;;;;;4953404;28;20377;-60
2023/06/14 21:30:33;;;;;;;11.05;3.95;;;;;;;;;;4970265;28;20488;-61
2023/06/14 21:32:59;;;;;;;10.75;3.40;;;;;;;;;;4970224;28;20410;-60
2023/06/14 21:35:25;;;;;;;7.93;2.50;;;;;;;;;;4970085;28;20122;-60
2023/06/14 21:37:51;;;;;;;7.30;3.22;;;;;;;;;;4971238;28;20564;-60
2023/06/14 21:40:17;;;;;;;7.72;3.03;;;;;;;;;;4965678;28;20122;-61
2023/06/14 21:42:44;;;;;;;9.25;3.25;;;;;;;;;;4953987;28;20050;-61
2023/06/14 21:45:12;;;;;;;6.22;2.85;;;;;;;;;;4950669;28;20047;-60
2023/06/14 21:47:38;;;;;;;8.30;3.30;;;;;;;;;;4971133;28;20075;-60
2023/06/14 21:50:05;;;;;;;8.13;2.70;;;;;;;;;;4968369;28;20497;-60
2023/06/14 21:52:31;;;;;;;8.98;2.90;;;;;;;;;;4937588;28;20129;-61
2023/06/14 21:54:57;;;;;;;7.00;2.60;;;;;;;;;;4968582;28;20629;-60
2023/06/14 21:57:26;;;;;;;5.47;2.85;;;;;;;;;;4969823;28;20416;-61
2023/06/14 21:59:53;;;;;;;7.03;2.50;;;;;;;;;;4971075;28;20038;-61
2023/06/14 22:02:19;;;;;;;6.90;2.85;;;;;;;;;;4966796;28;20535;-60
2023/06/14 22:04:45;;;;;;;7.10;3.03;;;;;;;;;;4970577;28;20030;-60
2023/06/14 22:07:11;;;;;;;8.07;2.50;;;;;;;;;;4965834;28;20138;-60
2023/06/14 22:09:40;;;;;;;9.18;2.95;;;;;;;;;;4971154;28;20042;-60
2023/06/14 22:12:07;;;;;;;7.82;2.50;;;;;;;;;;4960566;28;20413;-61
2023/06/14 22:14:34;;;;;;;9.15;3.20;;;;;;;;;;4970715;28;20039;-60
2023/06/14 22:17:01;;;;;;;7.97;2.65;;;;;;;;;;4966387;28;20101;-60
2023/06/14 22:19:27;;;;;;;5.38;2.35;;;;;;;;;;4969759;28;20039;-61
2023/06/14 22:21:57;;;;;;;6.38;2.25;;;;;;;;;;4946797;28;20050;-63
2023/06/14 22:24:23;;;;;;;5.32;2.17;;;;;;;;;;4964230;28;20047;-61
2023/06/14 22:26:56;;;;;;;7.68;2.33;;;;;;;;;;4948750;28;20045;-61
2023/06/14 22:29:22;;;;;;;5.65;2.65;;;;;;;;;;4964044;28;20532;-62
2023/06/14 22:31:49;;;;;;;7.32;2.42;;;;;;;;;;4969958;28;20031;-61
2023/06/14 22:34:15;;;;;;;6.70;2.35;;;;;;;;;;4950436;28;20043;-61
2023/06/14 22:36:41;;;;;;;6.40;2.53;;;;;;;;;;4965901;28;20080;-60
2023/06/14 22:39:08;;;;;;;6.43;2.80;;;;;;;;;;4969699;28;20105;-60
2023/06/14 22:41:37;;;;;;;8.15;2.55;;;;;;;;;;4970636;28;20143;-60
2023/06/14 22:44:03;;;;;;;9.85;2.60;;;;;;;;;;4966017;28;20089;-61
2023/06/14 22:46:29;;;;;;;8.00;2.25;;;;;;;;;;4952469;28;20070;-61
2023/06/14 22:48:56;;;;;;;9.32;2.72;;;;;;;;;;4970835;28;20513;-61
2023/06/14 22:51:23;;;;;;;6.55;2.30;;;;;;;;;;4968511;28;20571;-61
2023/06/14 22:53:49;;;;;;;7.43;2.40;;;;;;;;;;4970324;28;20098;-61
2023/06/14 22:56:16;;;;;;;5.68;2.30;;;;;;;;;;4935945;28;20043;-61
2023/06/14 22:58:43;;;;;;;6.18;2.45;;;;;;;;;;4970214;28;20062;-61
2023/06/14 23:01:14;;;;;;;7.47;2.90;;;;;;;;;;4968320;28;20051;-62
2023/06/14 23:03:40;;;;;;;7.35;2.50;;;;;;;;;;4964324;28;20054;-62
2023/06/14 23:06:08;;;;;;;5.65;2.50;;;;;;;;;;4974153;28;20130;-62
2023/06/14 23:08:34;;;;;;;6.93;2.50;;;;;;;;;;4952306;28;20046;-61
2023/06/14 23:11:03;;;;;;;6.40;2.33;;;;;;;;;;4957008;28;20616;-61
2023/06/14 23:13:30;;;;;;;6.90;2.60;;;;;;;;;;4968068;28;20077;-62
2023/06/14 23:15:57;;;;;;;7.85;2.53;;;;;;;;;;4974126;28;20121;-62
2023/06/14 23:18:23;;;;;;;7.78;2.88;;;;;;;;;;4953420;28;20042;-61
2023/06/14 23:20:50;;;;;;;7.85;2.70;;;;;;;;;;4969480;28;20046;-62
2023/06/14 23:23:16;;;;;;;7.82;2.50;;;;;;;;;;4970049;28;20050;-62
2023/06/14 23:25:42;;;;;;;6.00;2.55;;;;;;;;;;4970623;28;20507;-62
2023/06/14 23:28:09;;;;;;;7.28;2.60;;;;;;;;;;4940281;28;20050;-62
2023/06/14 23:30:37;;;;;;;5.38;2.70;;;;;;;;;;4967883;28;20057;-63
2023/06/14 23:33:03;;;;;;;9.93;3.00;;;;;;;;;;4973180;28;20047;-62
2023/06/14 23:35:33;;;;;;;6.18;2.55;;;;;;;;;;4972491;28;20499;-62
2023/06/14 23:38:03;;;;;;;7.13;2.85;;;;;;;;;;4956681;28;20042;-62
2023/06/14 23:40:30;;;;;;;6.82;2.70;;;;;;;;;;4971667;28;20054;-63
2023/06/14 23:42:56;;;;;;;7.18;2.92;;;;;;;;;;4971072;28;20401;-62
2023/06/14 23:45:22;;;;;;;5.90;2.88;;;;;;;;;;4955298;28;20043;-61
2023/06/14 23:47:49;;;;;;;7.68;2.40;;;;;;;;;;4967807;28;20046;-61
2023/06/14 23:50:15;;;;;;;5.85;2.53;;;;;;;;;;4973314;28;20049;-61
2023/06/14 23:52:43;;;;;;;6.70;2.58;;;;;;;;;;4970834;28;20049;-61
2023/06/14 23:55:16;;;;;;;6.43;2.50;;;;;;;;;;4956410;28;20409;-61
2023/06/14 23:57:42;;;;;;;8.00;3.33;;;;;;;;;;4969611;28;20129;-61
